createdAt,value
2018-07-21T00:00:49.558Z,14.70
2018-07-21T00:03:17.642Z,15.20
2018-07-21T00:05:45.069Z,16.30
2018-07-21T00:08:12.581Z,16.10
2018-07-21T00:10:40.021Z,15.00
2018-07-21T00:13:08.161Z,15.10
2018-07-21T00:15:36.277Z,14.80
2018-07-21T00:18:04.354Z,15.00
2018-07-21T00:20:32.438Z,15.10
2018-07-21T00:23:00.590Z,16.20
2018-07-21T00:25:28.649Z,16.50
2018-07-21T00:27:56.733Z,17.90
2018-07-21T00:30:24.877Z,18.00
2018-07-21T00:32:52.968Z,18.90
2018-07-21T00:35:21.065Z,17.80
2018-07-21T00:37:49.137Z,19.50
2018-07-21T00:40:17.233Z,19.80
2018-07-21T00:42:45.530Z,20.60
2018-07-21T00:45:13.617Z,21.40
2018-07-21T00:47:41.710Z,21.10
2018-07-21T00:50:09.801Z,21.70
2018-07-21T00:52:37.880Z,22.30
2018-07-21T00:55:06.035Z,21.90
2018-07-21T00:57:34.137Z,22.90
2018-07-21T01:00:02.238Z,22.80
2018-07-21T01:02:30.309Z,22.70
2018-07-21T01:04:58.384Z,23.00
2018-07-21T01:07:26.485Z,23.10
2018-07-21T01:12:22.437Z,23.00
2018-07-21T01:14:50.530Z,23.20
2018-07-21T01:17:18.626Z,23.00
2018-07-21T01:19:46.702Z,23.90
2018-07-21T01:22:14.821Z,23.80
2018-07-21T01:24:43.330Z,23.90
2018-07-21T01:27:11.465Z,23.90
2018-07-21T01:29:39.573Z,23.90
2018-07-21T01:32:07.665Z,23.30
2018-07-21T01:34:35.786Z,23.70
2018-07-21T01:37:03.913Z,23.30
2018-07-21T01:39:31.989Z,24.40
2018-07-21T01:42:00.110Z,24.20
2018-07-21T01:44:28.181Z,24.20
2018-07-21T01:46:56.257Z,24.10
2018-07-21T01:49:24.345Z,24.30
2018-07-21T01:51:52.437Z,24.00
2018-07-21T01:54:20.556Z,23.90
2018-07-21T01:56:48.644Z,24.00
2018-07-21T01:59:16.724Z,23.90
2018-07-21T02:01:44.822Z,23.70
2018-07-21T02:04:12.895Z,23.60
2018-07-21T02:06:40.996Z,23.50
2018-07-21T02:09:10.257Z,23.20
2018-07-21T02:11:38.365Z,23.20
2018-07-21T02:14:06.461Z,23.00
2018-07-21T02:16:34.578Z,23.00
2018-07-21T02:19:02.751Z,23.20
2018-07-21T02:21:30.829Z,23.40
2018-07-21T02:23:58.917Z,23.30
2018-07-21T02:26:27.013Z,23.20
2018-07-21T02:28:55.112Z,22.80
2018-07-21T02:31:23.194Z,22.80
2018-07-21T02:33:51.298Z,23.30
2018-07-21T02:36:19.385Z,23.40
2018-07-21T02:38:47.466Z,23.40
2018-07-21T02:41:15.554Z,23.30
2018-07-21T02:43:43.949Z,22.30
2018-07-21T02:46:12.118Z,21.70
2018-07-21T02:48:40.381Z,21.40
2018-07-21T02:51:08.478Z,20.90
2018-07-21T02:53:36.555Z,20.90
2018-07-21T02:56:04.645Z,20.80
2018-07-21T02:58:32.757Z,21.40
2018-07-21T03:01:00.866Z,21.40
2018-07-21T03:03:28.950Z,22.00
2018-07-21T03:05:57.041Z,21.80
2018-07-21T03:08:25.133Z,22.30
2018-07-21T03:10:53.354Z,22.80
2018-07-21T03:13:21.453Z,23.00
2018-07-21T03:15:49.540Z,23.40
2018-07-21T03:20:45.584Z,23.90
2018-07-21T03:23:13.702Z,23.50
2018-07-21T03:25:41.773Z,23.50
2018-07-21T03:28:09.861Z,24.00
2018-07-21T03:30:37.958Z,24.20
2018-07-21T03:33:06.055Z,24.70
2018-07-21T03:35:34.149Z,24.60
2018-07-21T03:38:02.240Z,24.70
2018-07-21T03:40:30.323Z,24.60
2018-07-21T03:42:58.397Z,24.60
2018-07-21T03:45:26.749Z,24.60
2018-07-21T03:47:55.557Z,24.60
2018-07-21T03:50:23.673Z,24.60
2018-07-21T03:52:51.769Z,24.50
2018-07-21T03:55:19.850Z,24.50
2018-07-21T03:57:47.937Z,24.50
2018-07-21T04:00:16.022Z,24.50
2018-07-21T04:02:44.109Z,24.30
2018-07-21T04:05:12.193Z,24.70
2018-07-21T04:07:40.285Z,24.10
2018-07-21T04:10:08.370Z,23.90
2018-07-21T04:12:36.461Z,24.00
2018-07-21T04:15:05.392Z,23.70
2018-07-21T04:20:01.333Z,23.10
2018-07-21T04:22:29.425Z,23.20
2018-07-21T04:24:57.545Z,24.00
2018-07-21T04:27:25.611Z,24.50
2018-07-21T04:29:53.701Z,24.50
2018-07-21T04:32:21.790Z,23.80
2018-07-21T04:34:49.869Z,24.40
2018-07-21T04:37:17.949Z,25.50
2018-07-21T04:39:46.124Z,25.50
2018-07-21T04:42:14.209Z,25.00
2018-07-21T04:44:42.468Z,25.30
2018-07-21T04:47:10.569Z,24.90
2018-07-21T04:49:38.658Z,24.60
2018-07-21T04:52:07.064Z,24.70
2018-07-21T04:54:35.160Z,24.70
2018-07-21T04:57:03.233Z,25.70
2018-07-21T04:59:31.325Z,25.00
2018-07-21T05:01:59.577Z,25.20
2018-07-21T05:04:27.664Z,25.20
2018-07-21T05:06:55.741Z,26.20
2018-07-21T05:09:23.830Z,23.40
2018-07-21T05:11:51.929Z,24.70
2018-07-21T05:16:48.026Z,24.80
2018-07-21T05:19:16.113Z,24.00
2018-07-21T05:21:44.193Z,24.40
2018-07-21T05:24:12.280Z,24.70
2018-07-21T05:26:40.383Z,25.30
2018-07-21T05:29:08.589Z,23.50
2018-07-21T05:31:36.665Z,23.00
2018-07-21T05:34:04.753Z,23.20
2018-07-21T05:36:32.833Z,24.10
2018-07-21T05:39:00.933Z,25.60
2018-07-21T05:41:29.009Z,24.90
2018-07-21T05:43:57.093Z,23.40
2018-07-21T05:46:25.177Z,23.20
2018-07-21T05:48:53.260Z,23.10
2018-07-21T05:51:21.334Z,23.50
2018-07-21T05:53:49.437Z,23.50
2018-07-21T05:58:45.453Z,23.20
2018-07-21T06:01:13.537Z,23.10
2018-07-21T06:03:41.694Z,24.10
2018-07-21T06:06:09.749Z,23.30
2018-07-21T06:08:37.884Z,23.20
2018-07-21T06:11:05.926Z,23.90
2018-07-21T06:13:34.057Z,26.00
2018-07-21T06:16:02.145Z,25.00
2018-07-21T06:18:30.284Z,27.70
2018-07-21T06:20:58.349Z,27.00
2018-07-21T06:23:26.463Z,26.90
2018-07-21T06:25:54.540Z,27.70
2018-07-21T06:28:22.667Z,28.30
2018-07-21T06:30:50.860Z,29.80
2018-07-21T06:33:19.215Z,30.00
2018-07-21T06:38:15.205Z,30.10
2018-07-21T06:40:43.293Z,31.00
2018-07-21T06:43:11.413Z,31.50
2018-07-21T06:45:39.500Z,31.50
2018-07-21T06:48:07.669Z,30.10
2018-07-21T06:50:35.757Z,30.50
2018-07-21T06:53:03.866Z,31.40
2018-07-21T06:55:31.947Z,31.50
2018-07-21T06:58:00.126Z,30.50
2018-07-21T07:00:28.213Z,31.30
2018-07-21T07:02:56.293Z,32.70
2018-07-21T07:05:24.674Z,31.80
2018-07-21T07:07:52.749Z,32.90
2018-07-21T07:10:20.842Z,32.40
2018-07-21T07:12:48.920Z,32.50
2018-07-21T07:17:44.869Z,32.30
2018-07-21T07:20:12.969Z,32.50
2018-07-21T07:22:41.041Z,31.10
2018-07-21T07:25:09.137Z,28.70
2018-07-21T07:27:37.240Z,28.20
2018-07-21T07:30:06.009Z,28.40
2018-07-21T07:32:34.094Z,28.70
2018-07-21T07:37:30.099Z,28.70
2018-07-21T07:39:58.249Z,28.60
2018-07-21T07:42:26.325Z,29.30
2018-07-21T07:44:54.433Z,28.70
2018-07-21T07:47:22.512Z,28.70
2018-07-21T07:49:50.596Z,29.30
2018-07-21T07:54:46.696Z,31.90
2018-07-21T07:57:14.770Z,32.60
2018-07-21T07:59:42.865Z,33.40
2018-07-21T08:02:10.989Z,34.70
2018-07-21T08:04:39.086Z,34.10
2018-07-21T08:07:07.156Z,35.70
2018-07-21T08:09:35.241Z,36.00
2018-07-21T08:12:03.338Z,36.30
2018-07-21T08:14:31.449Z,35.00
2018-07-21T08:16:59.533Z,36.30
2018-07-21T08:19:27.631Z,37.40
2018-07-21T08:21:55.709Z,37.20
2018-07-21T08:24:23.822Z,41.30
2018-07-21T08:26:51.913Z,41.80
2018-07-21T08:29:20.025Z,43.20
2018-07-21T08:31:48.096Z,42.80
2018-07-21T08:36:44.285Z,45.30
2018-07-21T08:39:12.588Z,46.80
2018-07-21T08:41:40.673Z,44.90
2018-07-21T08:44:08.760Z,44.60
2018-07-21T08:46:36.845Z,42.70
2018-07-21T08:49:05.212Z,42.90
2018-07-21T08:54:01.412Z,43.80
2018-07-21T08:56:29.496Z,46.50
2018-07-21T08:58:57.577Z,46.50
2018-07-21T09:01:25.669Z,45.80
2018-07-21T09:03:54.561Z,47.60
2018-07-21T09:08:50.537Z,49.30
2018-07-21T09:11:18.625Z,51.10
2018-07-21T09:13:46.709Z,51.10
2018-07-21T09:16:14.800Z,49.90
2018-07-21T09:18:42.883Z,50.30
2018-07-21T09:21:10.989Z,47.10
2018-07-21T09:23:39.078Z,45.30
2018-07-21T09:26:07.224Z,46.60
2018-07-21T09:28:35.311Z,46.50
2018-07-21T09:31:03.554Z,47.40
2018-07-21T09:33:31.626Z,48.00
2018-07-21T09:35:59.749Z,46.80
2018-07-21T09:38:27.933Z,45.80
2018-07-21T09:40:56.049Z,46.60
2018-07-21T09:43:24.133Z,45.10
2018-07-21T09:45:52.254Z,45.10
2018-07-21T09:48:20.329Z,46.00
2018-07-21T09:50:48.417Z,45.30
2018-07-21T09:53:16.530Z,46.60
2018-07-21T09:55:44.666Z,45.80
2018-07-21T09:58:12.721Z,47.20
2018-07-21T10:00:46.218Z,46.70
2018-07-21T10:03:14.301Z,45.40
2018-07-21T10:05:42.400Z,46.80
2018-07-21T10:08:10.494Z,45.40
2018-07-21T10:10:38.692Z,46.10
2018-07-21T10:13:06.941Z,46.70
2018-07-21T10:15:35.091Z,44.10
2018-07-21T10:18:03.204Z,45.00
2018-07-21T10:20:31.358Z,45.00
2018-07-21T10:22:59.464Z,46.50
2018-07-21T10:25:32.868Z,46.50
2018-07-21T10:30:34.458Z,45.60
2018-07-21T10:33:02.562Z,46.40
2018-07-21T10:35:30.684Z,46.80
2018-07-21T10:37:58.773Z,47.40
2018-07-21T10:40:26.897Z,46.50
2018-07-21T10:42:54.981Z,46.50
2018-07-21T10:45:23.090Z,47.00
2018-07-21T10:47:51.185Z,45.70
2018-07-21T10:50:19.756Z,46.30
2018-07-21T10:52:47.855Z,46.50
2018-07-21T10:55:15.973Z,47.30
2018-07-21T10:57:44.080Z,47.50
2018-07-21T11:00:12.188Z,44.80
2018-07-21T11:02:40.323Z,46.60
2018-07-21T11:05:08.734Z,48.30
2018-07-21T11:07:36.850Z,46.60
2018-07-21T11:10:05.021Z,46.70
2018-07-21T11:12:33.146Z,46.60
2018-07-21T11:15:01.301Z,47.90
2018-07-21T11:17:29.409Z,46.80
2018-07-21T11:22:25.398Z,46.80
2018-07-21T11:24:53.529Z,43.70
2018-07-21T11:27:21.661Z,43.30
2018-07-21T11:29:49.760Z,45.30
2018-07-21T11:32:17.871Z,44.50
2018-07-21T11:34:45.980Z,41.10
2018-07-21T11:37:14.134Z,40.80
2018-07-21T11:39:42.533Z,41.40
2018-07-21T11:42:10.644Z,40.50
2018-07-21T11:44:38.806Z,39.30
2018-07-21T11:47:06.893Z,41.80
2018-07-21T11:49:35.032Z,39.50
2018-07-21T11:52:03.156Z,38.70
2018-07-21T11:54:31.247Z,39.40
2018-07-21T11:57:00.878Z,38.20
2018-07-21T11:59:29.649Z,39.80
2018-07-21T12:01:58.306Z,39.80
2018-07-21T12:04:26.877Z,39.40
2018-07-21T12:06:56.033Z,40.90
2018-07-21T12:09:24.388Z,41.50
2018-07-21T12:11:52.545Z,39.80
2018-07-21T12:14:21.041Z,40.00
2018-07-21T12:16:49.204Z,38.30
2018-07-21T12:19:17.284Z,36.80
2018-07-21T12:21:45.396Z,36.80
2018-07-21T12:26:41.415Z,34.50
2018-07-21T12:29:09.670Z,32.30
2018-07-21T12:31:37.804Z,33.40
2018-07-21T12:34:06.162Z,34.10
2018-07-21T12:36:34.498Z,32.50
2018-07-21T12:39:04.037Z,31.80
2018-07-21T12:44:00.058Z,32.60
2018-07-21T12:46:28.161Z,33.10
2018-07-21T12:48:56.278Z,30.40
2018-07-21T12:51:24.381Z,32.60
2018-07-21T12:53:52.477Z,31.40
2018-07-21T12:56:20.577Z,29.80
2018-07-21T12:58:48.669Z,32.70
2018-07-21T13:01:16.963Z,32.20
2018-07-21T13:03:45.070Z,31.00
2018-07-21T13:06:13.141Z,30.00
2018-07-21T13:08:41.226Z,30.80
2018-07-21T13:11:09.323Z,31.90
2018-07-21T13:13:37.438Z,30.80
2018-07-21T13:16:05.513Z,31.60
2018-07-21T13:18:33.606Z,32.50
2018-07-21T13:21:01.686Z,32.90
2018-07-21T13:23:29.785Z,34.20
2018-07-21T13:25:58.084Z,33.20
2018-07-21T13:28:26.245Z,32.40
2018-07-21T13:30:54.317Z,33.10
2018-07-21T13:33:22.437Z,32.20
2018-07-21T13:35:50.503Z,32.60
2018-07-21T13:38:18.589Z,30.70
2018-07-21T13:40:46.678Z,31.00
2018-07-21T13:43:14.790Z,33.00
2018-07-21T13:45:42.875Z,33.60
2018-07-21T13:48:10.973Z,32.70
2018-07-21T13:50:39.095Z,31.60
2018-07-21T13:53:07.192Z,31.60
2018-07-21T13:55:35.277Z,31.50
2018-07-21T13:58:03.394Z,32.00
2018-07-21T14:00:31.521Z,31.90
2018-07-21T14:02:59.621Z,30.70
2018-07-21T14:05:27.712Z,30.70
2018-07-21T14:07:55.817Z,31.30
2018-07-21T14:12:51.777Z,31.00
2018-07-21T14:15:19.861Z,30.80
2018-07-21T14:17:47.961Z,32.80
2018-07-21T14:20:16.077Z,32.50
2018-07-21T14:22:44.173Z,33.10
2018-07-21T14:25:12.261Z,34.10
2018-07-21T14:27:40.380Z,34.40
2018-07-21T14:32:36.520Z,35.00
2018-07-21T14:37:32.502Z,35.10
2018-07-21T14:40:00.594Z,36.50
2018-07-21T14:42:28.677Z,39.50
2018-07-21T14:44:56.761Z,40.30
2018-07-21T14:47:24.854Z,41.70
2018-07-21T14:49:52.945Z,41.40
2018-07-21T14:52:21.309Z,40.80
2018-07-21T14:54:49.488Z,42.50
2018-07-21T14:57:17.497Z,42.20
2018-07-21T14:59:45.601Z,42.50
2018-07-21T15:02:13.691Z,43.30
2018-07-21T15:04:41.777Z,44.60
2018-07-21T15:07:09.861Z,45.70
2018-07-21T15:09:38.004Z,46.30
2018-07-21T15:12:06.047Z,46.70
2018-07-21T15:14:34.169Z,47.50
2018-07-21T15:17:02.253Z,49.10
2018-07-21T15:19:30.389Z,50.50
2018-07-21T15:21:58.498Z,50.80
2018-07-21T15:24:26.577Z,52.00
2018-07-21T15:26:54.665Z,50.60
2018-07-21T15:29:22.767Z,49.80
2018-07-21T15:31:50.851Z,47.90
2018-07-21T15:34:18.945Z,48.60
2018-07-21T15:36:47.025Z,48.20
2018-07-21T15:39:15.110Z,47.80
2018-07-21T15:41:43.202Z,48.10
2018-07-21T15:44:11.296Z,48.70
2018-07-21T15:46:39.389Z,49.00
2018-07-21T15:49:07.493Z,50.00
2018-07-21T15:51:35.586Z,49.80
2018-07-21T15:54:03.676Z,50.20
2018-07-21T15:56:31.770Z,49.60
2018-07-21T15:58:59.870Z,50.90
2018-07-21T16:01:28.050Z,50.40
2018-07-21T16:06:23.953Z,51.50
2018-07-21T16:08:52.050Z,51.00
2018-07-21T16:11:20.117Z,50.90
2018-07-21T16:13:48.226Z,50.90
2018-07-21T16:16:16.573Z,49.50
2018-07-21T16:18:44.665Z,50.20
2018-07-21T16:21:12.753Z,50.20
2018-07-21T16:23:40.845Z,50.70
2018-07-21T16:26:08.944Z,51.30
2018-07-21T16:28:37.033Z,50.70
2018-07-21T16:31:05.135Z,50.70
2018-07-21T16:36:01.102Z,50.40
2018-07-21T16:38:29.192Z,48.80
2018-07-21T16:40:57.277Z,50.10
2018-07-21T16:43:25.365Z,50.50
2018-07-21T16:45:53.467Z,50.70
2018-07-21T16:48:21.548Z,51.30
2018-07-21T16:50:49.630Z,52.60
2018-07-21T16:53:17.709Z,53.10
2018-07-21T16:55:45.812Z,53.40
2018-07-21T16:58:13.911Z,54.50
2018-07-21T17:00:42.016Z,54.40
2018-07-21T17:03:10.090Z,54.00
2018-07-21T17:05:38.189Z,52.90
2018-07-21T17:08:06.304Z,52.10
2018-07-21T17:10:34.361Z,52.30
2018-07-21T17:13:02.457Z,51.90
2018-07-21T17:15:30.557Z,52.80
2018-07-21T17:17:58.673Z,52.80
2018-07-21T17:20:27.822Z,52.50
2018-07-21T17:22:56.188Z,51.90
2018-07-21T17:25:24.260Z,52.30
2018-07-21T17:27:52.356Z,52.90
2018-07-21T17:30:20.471Z,53.00
2018-07-21T17:32:48.549Z,54.00
2018-07-21T17:35:16.744Z,55.10
2018-07-21T17:37:44.829Z,55.20
2018-07-21T17:40:12.931Z,54.30
2018-07-21T17:42:41.045Z,53.10
2018-07-21T17:45:09.137Z,52.50
2018-07-21T17:47:37.222Z,51.80
2018-07-21T17:50:05.318Z,51.90
2018-07-21T17:52:33.426Z,51.50
2018-07-21T17:55:01.514Z,52.60
2018-07-21T17:57:29.633Z,51.80
2018-07-21T17:59:57.720Z,52.70
2018-07-21T18:02:25.809Z,51.20
2018-07-21T18:04:53.925Z,51.10
2018-07-21T18:07:22.005Z,51.50
2018-07-21T18:09:50.117Z,50.80
2018-07-21T18:12:18.202Z,50.40
2018-07-21T18:14:46.285Z,50.40
2018-07-21T18:17:14.369Z,50.30
2018-07-21T18:19:42.481Z,49.70
2018-07-21T18:22:10.552Z,49.10
2018-07-21T18:24:38.633Z,48.90
2018-07-21T18:27:06.722Z,47.30
2018-07-21T18:29:34.810Z,48.30
2018-07-21T18:32:02.893Z,48.30
2018-07-21T18:34:30.985Z,48.20
2018-07-21T18:36:59.069Z,49.90
2018-07-21T18:39:27.149Z,48.80
2018-07-21T18:41:55.249Z,48.70
2018-07-21T18:44:23.321Z,49.30
2018-07-21T18:46:51.408Z,49.40
2018-07-21T18:49:19.481Z,49.20
2018-07-21T18:51:47.565Z,48.30
2018-07-21T18:54:15.649Z,48.20
2018-07-21T18:56:43.745Z,48.00
2018-07-21T18:59:11.817Z,48.40
2018-07-21T19:01:39.901Z,49.00
2018-07-21T19:06:35.833Z,47.80
2018-07-21T19:09:06.177Z,47.70
2018-07-21T19:11:34.299Z,47.90
2018-07-21T19:14:02.394Z,49.20
2018-07-21T19:16:35.669Z,49.50
2018-07-21T19:19:03.767Z,50.00
2018-07-21T19:21:31.873Z,50.70
2018-07-21T19:23:59.939Z,51.50
2018-07-21T19:26:33.540Z,51.00
2018-07-21T19:29:01.605Z,50.00
2018-07-21T19:31:29.699Z,50.90
2018-07-21T19:33:57.774Z,50.90
2018-07-21T19:36:25.869Z,50.80
2018-07-21T19:38:53.953Z,51.00
2018-07-21T19:41:27.298Z,51.30
2018-07-21T19:43:55.425Z,51.80
2018-07-21T19:46:23.521Z,52.90
2018-07-21T19:48:51.906Z,53.50
2018-07-21T19:51:19.993Z,53.20
2018-07-21T19:53:48.079Z,53.40
2018-07-21T19:56:16.172Z,53.90
2018-07-21T19:58:44.257Z,54.80
2018-07-21T20:01:12.349Z,53.90
2018-07-21T20:03:40.437Z,54.80
2018-07-21T20:06:08.521Z,54.60
2018-07-21T20:08:36.629Z,54.50
2018-07-21T20:11:04.685Z,54.90
2018-07-21T20:13:32.789Z,54.90
2018-07-21T20:16:00.888Z,54.50
2018-07-21T20:18:28.972Z,53.00
2018-07-21T20:20:57.160Z,53.30
2018-07-21T20:23:25.181Z,53.60
2018-07-21T20:25:53.288Z,53.70
2018-07-21T20:28:21.388Z,53.50
2018-07-21T20:30:49.469Z,52.80
2018-07-21T20:35:45.425Z,53.90
2018-07-21T20:38:13.525Z,52.80
2018-07-21T20:40:41.600Z,52.50
2018-07-21T20:43:09.705Z,52.40
2018-07-21T20:45:37.789Z,52.10
2018-07-21T20:48:06.121Z,52.50
2018-07-21T20:50:34.216Z,53.50
2018-07-21T20:53:02.310Z,52.70
2018-07-21T20:55:30.397Z,53.50
2018-07-21T20:58:01.394Z,53.70
2018-07-21T21:00:30.295Z,53.90
2018-07-21T21:02:58.345Z,54.40
2018-07-21T21:05:26.425Z,55.10
2018-07-21T21:07:54.534Z,55.00
2018-07-21T21:12:50.517Z,55.90
2018-07-21T21:15:18.593Z,55.90
2018-07-21T21:17:46.678Z,55.90
2018-07-21T21:20:14.781Z,55.70
2018-07-21T21:22:42.916Z,55.50
2018-07-21T21:25:10.969Z,55.40
2018-07-21T21:27:39.065Z,55.50
2018-07-21T21:30:07.170Z,54.90
2018-07-21T21:32:35.245Z,56.00
2018-07-21T21:37:31.214Z,55.00
2018-07-21T21:39:59.300Z,54.70
2018-07-21T21:42:27.493Z,54.40
2018-07-21T21:44:55.505Z,53.80
2018-07-21T21:47:23.597Z,53.20
2018-07-21T21:49:51.688Z,53.40
2018-07-21T21:52:19.771Z,53.80
2018-07-21T21:54:47.866Z,54.00
2018-07-21T21:57:15.945Z,53.80
2018-07-21T21:59:44.054Z,53.50
2018-07-21T22:02:12.162Z,53.10
2018-07-21T22:04:40.286Z,52.90
2018-07-21T22:07:08.330Z,51.10
2018-07-21T22:09:36.441Z,51.40
2018-07-21T22:12:04.950Z,52.50
2018-07-21T22:14:33.062Z,51.00
2018-07-21T22:19:29.053Z,50.00
2018-07-21T22:21:57.165Z,49.50
2018-07-21T22:24:25.285Z,49.00
2018-07-21T22:26:53.409Z,49.20
2018-07-21T22:31:49.456Z,49.70
2018-07-21T22:34:17.550Z,48.90
2018-07-21T22:36:45.630Z,48.00
2018-07-21T22:39:13.712Z,48.00
2018-07-21T22:41:42.093Z,49.40
2018-07-21T22:44:10.219Z,49.50
2018-07-21T22:46:38.262Z,49.70
2018-07-21T22:49:06.372Z,50.80
2018-07-21T22:51:34.437Z,51.20
2018-07-21T22:54:02.528Z,52.20
2018-07-21T22:56:30.606Z,51.60
2018-07-21T22:58:58.689Z,51.20
2018-07-21T23:01:26.769Z,50.50
2018-07-21T23:03:54.857Z,49.50
2018-07-21T23:06:22.933Z,48.80
2018-07-21T23:08:51.021Z,47.90
2018-07-21T23:11:19.128Z,48.90
2018-07-21T23:13:47.222Z,49.60
2018-07-21T23:16:15.328Z,50.10
2018-07-21T23:18:43.422Z,50.20
2018-07-21T23:21:11.485Z,51.80
2018-07-21T23:23:39.601Z,49.40
2018-07-21T23:26:07.681Z,48.50
2018-07-21T23:28:35.765Z,48.00
2018-07-21T23:31:03.854Z,48.50
2018-07-21T23:35:59.849Z,49.30
2018-07-21T23:38:27.981Z,49.40
2018-07-21T23:40:56.073Z,49.60
2018-07-21T23:43:24.176Z,50.00
2018-07-21T23:45:52.253Z,50.00
2018-07-21T23:48:20.337Z,49.50
2018-07-21T23:50:48.429Z,49.20
2018-07-21T23:55:44.429Z,49.70
2018-07-21T23:58:12.518Z,50.30
